Time;durP1;ratioP1;P1;durP2;ratioP2;P2;SDS_P1;SDS_P2;PMS_P1;PMS_P2;Temp;Humidity;BMP_temperature;BMP_pressure;BME280_temperature;BME280_humidity;BME280_pressure;Samples;Min_cycle;Max_cycle;Signal;HPM_P1;HPM_P2
2021/08/02 00:02:57;;;;;;;10.15;3.40;;;;;;;14.82;91.88;97973.00;2172528;81;20940;-58
2021/08/02 00:05:57;;;;;;;12.33;3.40;;;;;;;14.83;92.75;97974.67;2172396;81;20923;-58
2021/08/02 00:08:58;;;;;;;9.55;3.20;;;;;;;14.80;92.99;97972.32;2172226;81;20975;-58
2021/08/02 00:11:59;;;;;;;13.88;3.50;;;;;;;14.81;93.76;97981.88;2172274;81;21528;-58
2021/08/02 00:15:00;;;;;;;10.93;3.37;;;;;;;14.81;93.75;97980.09;2172629;82;20978;-58
2021/08/02 00:18:01;;;;;;;13.05;3.25;;;;;;;14.83;93.84;97982.59;2172011;82;21014;-58
2021/08/02 00:21:02;;;;;;;11.35;3.30;;;;;;;14.84;92.53;97986.41;2172235;82;21054;-58
2021/08/02 00:24:03;;;;;;;7.25;3.08;;;;;;;14.83;93.73;97984.73;2172160;82;21038;-58
2021/08/02 00:27:03;;;;;;;11.85;3.02;;;;;;;14.84;93.13;97987.73;2172429;81;21022;-58
2021/08/02 00:30:04;;;;;;;10.08;3.12;;;;;;;14.88;92.59;97984.30;2172615;81;20978;-58
2021/08/02 00:33:08;;;;;;;8.50;2.95;;;;;;;14.88;92.68;97973.28;2172463;81;20971;-58
2021/08/02 00:36:06;;;;;;;;;;;;;;;14.90;92.21;97982.38;2164433;82;20974;-58
2021/08/02 00:39:07;;;;;;;9.08;2.67;;;;;;;14.89;93.26;97993.90;2172370;81;20115;-59
2021/08/02 00:42:07;;;;;;;6.90;2.65;;;;;;;14.86;92.38;97995.01;2172268;81;20994;-59
2021/08/02 00:45:07;;;;;;;6.17;2.50;;;;;;;14.83;92.71;97987.38;2172224;81;21457;-59
2021/08/02 00:48:08;;;;;;;7.55;3.00;;;;;;;14.82;93.04;98003.36;2172065;81;20986;-58
2021/08/02 00:51:09;;;;;;;6.97;3.00;;;;;;;14.78;93.92;98000.65;2172206;81;21038;-58
2021/08/02 00:54:09;;;;;;;8.35;3.10;;;;;;;14.72;93.96;98002.89;2171947;81;21061;-57
2021/08/02 00:57:10;;;;;;;11.85;3.20;;;;;;;14.68;94.12;98000.18;2171941;81;21074;-58
2021/08/02 01:00:11;;;;;;;8.68;3.25;;;;;;;14.67;93.77;98002.96;2172431;81;20970;-60
2021/08/02 01:03:11;;;;;;;8.43;3.30;;;;;;;14.59;94.12;98019.44;2172317;81;20955;-59
2021/08/02 01:06:12;;;;;;;10.10;3.65;;;;;;;14.51;94.14;98016.66;2172193;81;21496;-58
2021/08/02 01:09:12;;;;;;;10.95;3.92;;;;;;;14.41;94.02;98023.73;2172169;81;20963;-61
2021/08/02 01:12:13;;;;;;;11.50;4.00;;;;;;;14.33;94.42;98033.66;2172215;81;20970;-58
2021/08/02 01:15:13;;;;;;;14.15;4.78;;;;;;;14.28;94.29;98021.36;2172318;81;21017;-58
2021/08/02 01:18:14;;;;;;;13.78;4.67;;;;;;;14.22;94.44;98016.14;2172371;81;20963;-58
2021/08/02 01:21:14;;;;;;;16.30;5.58;;;;;;;14.20;94.42;98019.41;2171858;81;21049;-57
2021/08/02 01:24:15;;;;;;;14.90;4.95;;;;;;;14.15;94.13;98021.14;2172138;82;21038;-58
2021/08/02 01:27:15;;;;;;;18.55;5.50;;;;;;;14.14;94.46;98042.37;2172146;81;21556;-58
2021/08/02 01:30:16;;;;;;;15.65;5.37;;;;;;;14.10;94.48;98045.75;2172557;81;20998;-58
2021/08/02 01:33:16;;;;;;;15.48;5.65;;;;;;;14.05;94.84;98042.70;2172303;82;21003;-58
2021/08/02 01:36:16;;;;;;;16.12;5.53;;;;;;;14.02;94.75;98044.27;2172461;81;21022;-59
2021/08/02 01:39:17;;;;;;;14.80;4.85;;;;;;;13.99;94.84;98047.17;2172162;81;20959;-58
2021/08/02 01:42:17;;;;;;;18.32;5.50;;;;;;;13.97;94.33;98040.72;2172226;81;20970;-58
2021/08/02 01:45:18;;;;;;;17.45;5.90;;;;;;;13.97;94.68;98046.00;2172046;81;21557;-58
2021/08/02 01:48:18;;;;;;;20.90;6.10;;;;;;;13.95;94.72;98057.63;2171930;82;21029;-61
2021/08/02 01:51:19;;;;;;;16.87;6.47;;;;;;;13.91;94.79;98060.22;2172313;81;20991;-59
2021/08/02 01:54:19;;;;;;;19.62;7.25;;;;;;;13.88;94.93;98058.67;2178618;81;21002;-58
2021/08/02 01:57:20;;;;;;;17.75;7.12;;;;;;;13.84;95.23;98059.41;2181806;82;20990;-58
2021/08/02 02:00:20;;;;;;;19.32;6.28;;;;;;;13.82;94.91;98049.50;2182023;82;21071;-65
2021/08/02 02:03:20;;;;;;;16.77;5.90;;;;;;;13.82;95.08;98051.28;2181886;82;20971;-70
2021/08/02 02:06:21;;;;;;;22.00;5.87;;;;;;;13.80;94.90;98046.64;2182011;81;21521;-69
2021/08/02 02:09:21;;;;;;;19.07;6.10;;;;;;;13.81;94.82;98058.86;2181878;81;20978;-67
2021/08/02 02:12:22;;;;;;;18.37;6.15;;;;;;;13.79;94.47;98055.04;2181937;81;20979;-67
2021/08/02 02:15:23;;;;;;;17.27;5.90;;;;;;;13.82;93.99;98060.50;2181677;82;21014;-66
2021/08/02 02:18:24;;;;;;;18.23;6.10;;;;;;;13.83;94.21;98061.72;2181823;82;21018;-68
2021/08/02 02:21:26;;;;;;;18.60;6.10;;;;;;;13.83;94.25;98063.03;2181677;82;21631;-67
2021/08/02 02:24:26;;;;;;;17.57;5.53;;;;;;;13.84;94.13;98070.45;2182262;82;21022;-63
2021/08/02 02:27:27;;;;;;;17.20;5.33;;;;;;;13.84;94.10;98071.77;2181518;81;21018;-66
2021/08/02 02:30:30;;;;;;;17.82;5.47;;;;;;;13.83;93.94;98077.53;2181987;82;21497;-68
2021/08/02 02:33:30;;;;;;;19.23;5.60;;;;;;;13.82;93.64;98086.86;2181537;82;21002;-68
2021/08/02 02:36:31;;;;;;;18.87;5.42;;;;;;;13.83;94.01;98085.44;2182193;81;21054;-66
2021/08/02 02:39:31;;;;;;;17.75;5.22;;;;;;;13.82;93.99;98086.86;2181862;82;20974;-65
2021/08/02 02:42:34;;;;;;;15.65;4.90;;;;;;;13.82;93.88;98083.76;2181643;82;21133;-62
2021/08/02 02:45:34;;;;;;;;;;;;;;;13.81;93.68;98088.67;2164285;82;20978;-63
2021/08/02 02:48:35;;;;;;;17.17;5.85;;;;;;;13.77;94.00;98083.31;2181991;81;20486;-62
2021/08/02 02:51:35;;;;;;;18.52;6.08;;;;;;;13.76;93.94;98081.63;2182020;82;21002;-60
2021/08/02 02:54:35;;;;;;;17.92;6.03;;;;;;;13.76;94.10;98092.66;2181966;81;21102;-67
2021/08/02 02:57:38;;;;;;;20.40;7.20;;;;;;;13.77;94.16;98096.98;2182143;82;20986;-67
2021/08/02 03:00:38;;;;;;;28.47;13.38;;;;;;;13.78;93.91;98095.53;2182301;82;20963;-63
2021/08/02 03:03:39;;;;;;;27.82;14.50;;;;;;;13.79;94.15;98095.03;2182069;82;20959;-64
2021/08/02 03:06:39;;;;;;;26.90;12.07;;;;;;;13.82;94.46;98094.77;2182041;81;21034;-62
2021/08/02 03:09:40;;;;;;;24.15;10.72;;;;;;;13.85;94.81;98105.08;2181871;82;21026;-64
2021/08/02 03:12:40;;;;;;;22.62;9.55;;;;;;;13.89;94.40;98100.36;2182308;82;21006;-68
2021/08/02 03:15:42;;;;;;;20.17;7.83;;;;;;;13.94;93.90;98112.17;2182284;82;20974;-68
2021/08/02 03:18:42;;;;;;;21.60;8.28;;;;;;;14.02;93.71;98114.99;2182299;82;21019;-66
2021/08/02 03:21:43;;;;;;;22.55;8.68;;;;;;;14.11;93.98;98133.13;2182028;82;21011;-68
2021/08/02 03:24:43;;;;;;;22.98;9.58;;;;;;;14.12;93.45;98122.09;2182186;82;20979;-64
2021/08/02 03:27:44;;;;;;;23.00;9.63;;;;;;;14.21;93.26;98119.98;2182154;82;20986;-65
2021/08/02 03:30:44;;;;;;;24.72;9.28;;;;;;;14.23;93.29;98127.77;2182411;82;20983;-61
2021/08/02 03:33:45;;;;;;;22.82;9.15;;;;;;;14.29;93.17;98130.68;2182069;81;20966;-65
2021/08/02 03:36:45;;;;;;;22.20;9.83;;;;;;;14.37;92.86;98127.39;2182064;82;21635;-57
2021/08/02 03:39:45;;;;;;;23.00;10.03;;;;;;;14.42;92.87;98133.58;2182169;82;21485;-58
2021/08/02 03:42:46;;;;;;;21.40;9.83;;;;;;;14.43;92.81;98148.44;2181864;82;21050;-58
2021/08/02 03:45:47;;;;;;;23.90;10.08;;;;;;;14.43;92.51;98139.21;2182391;82;20962;-57
2021/08/02 03:48:47;;;;;;;23.77;10.48;;;;;;;14.48;92.69;98148.86;2182151;81;21002;-57
2021/08/02 03:51:48;;;;;;;24.92;10.93;;;;;;;14.58;92.50;98149.70;2182207;81;21030;-59
2021/08/02 03:54:48;;;;;;;25.20;10.95;;;;;;;14.61;92.24;98167.09;2182088;81;21512;-59
2021/08/02 03:57:49;;;;;;;27.70;11.53;;;;;;;14.63;92.39;98171.80;2182125;82;20974;-58
2021/08/02 04:00:49;;;;;;;24.55;11.55;;;;;;;14.68;92.20;98172.20;2182272;82;21017;-58
2021/08/02 04:03:49;;;;;;;29.48;11.97;;;;;;;14.72;92.21;98182.84;2182403;82;20962;-62
2021/08/02 04:06:50;;;;;;;26.82;11.70;;;;;;;14.74;92.28;98183.56;2181743;82;21010;-64
2021/08/02 04:09:50;;;;;;;27.55;12.50;;;;;;;14.75;92.28;98179.10;2181974;81;21045;-58
2021/08/02 04:12:51;;;;;;;26.10;12.50;;;;;;;14.79;92.42;98186.61;2181979;82;21085;-60
2021/08/02 04:15:52;;;;;;;26.75;12.47;;;;;;;14.80;92.36;98189.61;2182277;82;21474;-60
2021/08/02 04:18:52;;;;;;;26.35;12.68;;;;;;;14.85;92.20;98186.55;2182123;82;21021;-58
2021/08/02 04:21:53;;;;;;;26.00;12.23;;;;;;;14.90;92.32;98183.03;2182394;82;20994;-60
2021/08/02 04:24:53;;;;;;;27.95;12.58;;;;;;;14.93;92.06;98190.67;2182284;82;21026;-59
2021/08/02 04:27:55;;;;;;;28.27;12.00;;;;;;;14.97;92.00;98185.94;2181932;82;20986;-62
2021/08/02 04:30:55;;;;;;;26.75;12.25;;;;;;;14.98;91.95;98187.12;2182313;81;21512;-63
2021/08/02 04:33:56;;;;;;;26.17;11.95;;;;;;;15.00;91.73;98187.01;2182108;82;21085;-59
2021/08/02 04:36:57;;;;;;;25.57;12.07;;;;;;;14.99;91.65;98202.50;2182195;82;20970;-57
2021/08/02 04:39:57;;;;;;;26.15;12.05;;;;;;;15.00;91.68;98193.11;2182095;82;20952;-62
2021/08/02 04:42:58;;;;;;;26.70;12.35;;;;;;;15.02;91.62;98202.22;2182123;81;20998;-63
2021/08/02 04:45:58;;;;;;;26.17;12.07;;;;;;;15.02;91.75;98201.72;2181949;82;20998;-63
2021/08/02 04:48:59;;;;;;;24.57;11.45;;;;;;;15.12;91.70;98198.27;2182091;81;21101;-59
2021/08/02 04:52:00;;;;;;;26.00;11.80;;;;;;;15.12;91.27;98209.66;2182167;82;21018;-59
2021/08/02 04:55:01;;;;;;;25.57;11.73;;;;;;;15.09;91.40;98204.66;2175599;81;21030;-57
2021/08/02 04:58:01;;;;;;;26.93;12.63;;;;;;;15.09;91.20;98216.55;2172188;81;20971;-63
2021/08/02 05:01:02;;;;;;;27.62;12.82;;;;;;;15.07;91.37;98207.94;2172150;81;21525;-66
2021/08/02 05:04:02;;;;;;;25.27;11.73;;;;;;;15.14;91.29;98206.41;2172583;81;20963;-63
2021/08/02 05:07:03;;;;;;;30.08;13.80;;;;;;;15.21;91.02;98205.36;2172247;81;21002;-60
2021/08/02 05:10:03;;;;;;;25.95;11.70;;;;;;;15.24;90.54;98208.57;2172131;81;21014;-66
2021/08/02 05:13:04;;;;;;;26.30;12.53;;;;;;;15.29;90.44;98209.97;2172322;81;20966;-68
2021/08/02 05:16:04;;;;;;;28.23;13.05;;;;;;;15.26;90.59;98216.36;2172287;81;20955;-62
2021/08/02 05:19:04;;;;;;;27.05;13.08;;;;;;;15.27;90.41;98211.43;2172029;81;21537;-64
2021/08/02 05:22:05;;;;;;;27.73;13.10;;;;;;;15.28;90.57;98222.32;2172097;81;21612;-60
2021/08/02 05:25:05;;;;;;;28.65;12.88;;;;;;;15.32;90.88;98226.36;2171980;81;21137;-64
2021/08/02 05:28:08;;;;;;;26.82;12.80;;;;;;;15.34;90.74;98227.55;2161566;82;21501;-62
2021/08/02 05:31:08;;;;;;;29.40;13.08;;;;;;;15.41;90.29;98239.23;2172318;81;20986;-66
2021/08/02 05:34:11;;;;;;;26.68;13.72;;;;;;;15.35;90.21;98234.50;2172179;81;20936;-60
2021/08/02 05:37:11;;;;;;;;;;;;;;;15.39;90.18;98243.33;2164702;82;20990;-64
2021/08/02 05:40:11;;;;;;;26.70;13.08;;;;;;;15.40;90.12;98246.33;2172073;81;20097;-58
2021/08/02 05:43:12;;;;;;;28.12;13.13;;;;;;;15.38;90.21;98247.44;2172173;81;20971;-64
2021/08/02 05:46:12;;;;;;;25.52;13.10;;;;;;;15.44;90.26;98236.80;2172066;82;21521;-69
2021/08/02 05:49:13;;;;;;;26.05;13.18;;;;;;;15.59;90.42;98249.95;2172259;81;21010;-60
2021/08/02 05:52:13;;;;;;;28.95;12.78;;;;;;;15.75;89.67;98245.42;2171981;81;21086;-67
2021/08/02 05:55:14;;;;;;;25.82;13.22;;;;;;;15.85;89.29;98246.27;2178041;81;21030;-69
2021/08/02 05:58:15;;;;;;;25.50;12.43;;;;;;;15.95;88.96;98248.91;2181922;81;20947;-61
2021/08/02 06:01:15;;;;;;;26.95;13.05;;;;;;;16.05;88.86;98252.86;2182080;81;21549;-64
2021/08/02 06:04:16;;;;;;;26.62;12.07;;;;;;;16.07;88.44;98258.33;2182093;81;21029;-67
2021/08/02 06:07:16;;;;;;;28.15;11.57;;;;;;;16.07;88.11;98257.00;2181856;82;21089;-65
2021/08/02 06:10:17;;;;;;;25.82;12.90;;;;;;;16.05;87.82;98273.52;2181919;82;20987;-68
2021/08/02 06:13:18;;;;;;;24.55;12.95;;;;;;;16.09;88.66;98272.27;2182237;82;20959;-63
2021/08/02 06:19:21;;;;;;;;;;;;;;;16.10;88.46;98267.33;2165952;82;21070;-66
2021/08/02 06:22:21;;;;;;;27.30;12.40;;;;;;;16.19;89.14;98277.55;2181945;81;20124;-65
2021/08/02 06:25:22;;;;;;;28.17;12.00;;;;;;;16.23;87.90;98286.02;2182029;82;21521;-67
2021/08/02 06:28:22;;;;;;;27.05;11.93;;;;;;;16.34;87.71;98274.44;2182510;82;20998;-65
2021/08/02 06:31:22;;;;;;;25.25;10.60;;;;;;;16.41;86.66;98290.91;2181528;82;21021;-59
2021/08/02 06:34:23;;;;;;;28.62;10.98;;;;;;;16.52;86.60;98293.03;2182263;82;20977;-61
2021/08/02 06:37:23;;;;;;;23.83;11.50;;;;;;;16.58;85.61;98298.60;2182237;82;21001;-59
2021/08/02 06:40:24;;;;;;;22.85;10.03;;;;;;;16.73;86.43;98294.98;2181886;82;21019;-62
2021/08/02 06:43:25;;;;;;;22.55;9.95;;;;;;;16.81;84.78;98295.59;2181951;82;21782;-66
2021/08/02 06:46:25;;;;;;;22.87;9.78;;;;;;;17.01;83.93;98302.98;2181624;82;21138;-69
2021/08/02 06:49:26;;;;;;;22.17;10.23;;;;;;;17.11;84.35;98297.14;2181985;81;21014;-66
2021/08/02 06:52:27;;;;;;;24.55;10.80;;;;;;;17.27;84.15;98302.29;2182159;81;20943;-61
2021/08/02 06:55:27;;;;;;;24.23;10.08;;;;;;;17.40;83.00;98295.30;2181887;81;21086;-65
2021/08/02 06:58:28;;;;;;;22.48;9.13;;;;;;;17.58;82.02;98301.42;2182842;80;21486;-65
2021/08/02 07:01:28;;;;;;;22.82;8.95;;;;;;;17.78;81.78;98311.89;2190411;80;20968;-61
2021/08/02 07:04:29;;;;;;;20.90;8.93;;;;;;;18.03;81.83;98310.33;2145855;82;21012;-59
2021/08/02 07:07:29;;;;;;;21.27;8.35;;;;;;;18.46;80.57;98303.80;2171091;82;21092;-60
2021/08/02 07:10:30;;;;;;;20.60;8.75;;;;;;;18.76;78.99;98316.25;2171096;82;21075;-68
2021/08/02 07:13:31;;;;;;;23.70;8.70;;;;;;;18.75;75.50;98326.06;2171069;82;21076;-63
2021/08/02 07:16:32;;;;;;;19.07;7.45;;;;;;;18.79;77.53;98319.92;2127693;83;21110;-66
2021/08/02 07:19:32;;;;;;;21.20;7.47;;;;;;;19.00;76.78;98331.02;2178589;82;20987;-58
2021/08/02 07:22:33;;;;;;;19.77;7.35;;;;;;;18.70;75.11;98319.90;2134167;83;21498;-58
2021/08/02 07:25:33;;;;;;;21.68;7.50;;;;;;;18.37;75.18;98328.64;2096512;85;20996;-65
2021/08/02 07:28:34;;;;;;;17.90;7.05;;;;;;;18.29;77.31;98329.43;2134128;83;21040;-69
2021/08/02 07:31:34;;;;;;;18.40;6.85;;;;;;;18.64;77.87;98322.34;2178819;82;20967;-60
2021/08/02 07:34:35;;;;;;;21.87;7.37;;;;;;;18.79;74.48;98335.86;2134428;83;20965;-65
2021/08/02 07:37:35;;;;;;;18.40;7.40;;;;;;;18.79;76.36;98333.20;2096615;85;20999;-61
2021/08/02 07:40:36;;;;;;;21.12;7.83;;;;;;;18.64;74.98;98347.06;2133601;83;21590;-62
2021/08/02 07:43:36;;;;;;;20.70;7.35;;;;;;;18.46;75.99;98344.48;2178448;81;21537;-59
2021/08/02 07:46:37;;;;;;;19.27;6.80;;;;;;;18.58;76.35;98343.72;2178775;82;21014;-62
2021/08/02 07:49:37;;;;;;;22.80;7.78;;;;;;;18.61;76.61;98342.08;2134297;83;21025;-70
2021/08/02 07:52:38;;;;;;;19.75;7.60;;;;;;;18.55;76.24;98340.05;2101725;83;20957;-63
2021/08/02 07:55:38;;;;;;;19.45;6.67;;;;;;;18.49;76.76;98339.36;2172684;82;21016;-59
2021/08/02 07:58:38;;;;;;;18.92;6.97;;;;;;;18.70;74.64;98345.13;2220544;80;20984;-60
2021/08/02 08:01:39;;;;;;;18.82;6.83;;;;;;;19.01;76.10;98328.70;2220517;80;21486;-64
2021/08/02 08:04:39;;;;;;;21.65;7.60;;;;;;;19.30;74.29;98338.11;2220556;80;20980;-62
2021/08/02 08:07:40;;;;;;;20.08;8.28;;;;;;;19.64;74.00;98337.69;2220396;80;21043;-63
2021/08/02 08:10:40;;;;;;;21.30;7.40;;;;;;;20.16;70.22;98336.62;2220686;80;20964;-61
2021/08/02 08:13:40;;;;;;;22.87;7.35;;;;;;;20.42;72.48;98340.42;2220512;80;20964;-64
2021/08/02 08:16:41;;;;;;;19.02;6.83;;;;;;;20.21;71.04;98338.27;2220012;80;21035;-59
2021/08/02 08:19:42;;;;;;;18.30;7.33;;;;;;;19.73;70.47;98345.52;2220434;80;21464;-59
2021/08/02 08:22:42;;;;;;;20.50;7.45;;;;;;;19.13;71.10;98363.79;2220357;80;20976;-60
2021/08/02 08:25:43;;;;;;;22.22;7.72;;;;;;;18.91;73.97;98357.73;2220587;80;20988;-59
2021/08/02 08:28:43;;;;;;;18.75;7.22;;;;;;;18.96;73.86;98363.37;2220583;80;21036;-61
2021/08/02 08:31:43;;;;;;;20.90;7.55;;;;;;;18.90;73.92;98356.88;2220475;80;20965;-58
2021/08/02 08:34:44;;;;;;;20.57;7.67;;;;;;;19.08;74.04;98355.95;2220319;80;21007;-66
2021/08/02 08:37:44;;;;;;;21.77;8.00;;;;;;;19.43;72.89;98353.60;2220260;80;21535;-60
2021/08/02 08:40:45;;;;;;;20.10;7.25;;;;;;;19.77;72.40;98347.37;2220363;80;21589;-60
2021/08/02 08:43:45;;;;;;;21.87;7.42;;;;;;;20.20;71.22;98358.74;2212651;80;21010;-59
2021/08/02 08:46:46;;;;;;;20.27;7.55;;;;;;;20.21;71.39;98360.89;2187744;80;20984;-64
2021/08/02 08:49:46;;;;;;;21.15;7.97;;;;;;;20.35;69.98;98370.87;2201500;80;20995;-63
2021/08/02 08:52:46;;;;;;;20.40;8.18;;;;;;;20.42;69.09;98375.05;2213277;80;20985;-62
2021/08/02 08:55:47;;;;;;;18.98;7.17;;;;;;;20.79;68.38;98377.69;2176329;82;21041;-59
2021/08/02 08:58:48;;;;;;;20.82;7.75;;;;;;;20.82;65.78;98380.02;2172292;81;21445;-60
2021/08/02 09:01:49;;;;;;;19.62;8.45;;;;;;;20.91;68.78;98364.31;2189596;81;21509;-63
2021/08/02 09:04:49;;;;;;;18.23;7.70;;;;;;;20.69;67.86;98382.38;2210239;81;21023;-67
2021/08/02 09:07:50;;;;;;;19.67;7.70;;;;;;;20.69;67.86;98382.38;2210504;81;21016;-59
2021/08/02 09:10:50;;;;;;;19.35;7.72;;;;;;;20.58;66.44;98391.50;2210251;81;21016;-58
2021/08/02 09:13:51;;;;;;;19.98;7.12;;;;;;;20.53;68.58;98391.16;2210105;81;21001;-61
2021/08/02 09:16:52;;;;;;;21.75;7.17;;;;;;;20.51;67.08;98389.19;2210107;81;21036;-63
2021/08/02 09:19:54;;;;;;;18.92;7.17;;;;;;;20.79;67.73;98380.36;2188181;81;22237;-60
2021/08/02 09:22:55;;;;;;;18.10;6.70;;;;;;;21.33;64.43;98392.17;2209869;81;21044;-58
2021/08/02 09:25:55;;;;;;;20.57;7.35;;;;;;;20.96;63.63;98390.48;2195438;81;21059;-66
2021/08/02 09:28:55;;;;;;;19.48;7.37;;;;;;;21.17;64.87;98387.23;2210333;81;21036;-60
2021/08/02 09:31:56;;;;;;;17.63;6.77;;;;;;;21.60;65.77;98373.57;2175655;81;20969;-63
2021/08/02 09:34:56;;;;;;;19.67;7.23;;;;;;;21.82;61.72;98375.93;2172179;82;20984;-62
2021/08/02 09:37:57;;;;;;;15.57;5.70;;;;;;;21.85;62.00;98386.77;2172214;82;20957;-64
2021/08/02 09:40:57;;;;;;;16.60;5.70;;;;;;;22.12;62.82;98387.59;2172178;82;20989;-59
2021/08/02 09:43:58;;;;;;;15.73;5.77;;;;;;;21.91;60.18;98385.56;2205234;81;21496;-65
2021/08/02 09:46:58;;;;;;;16.17;5.87;;;;;;;21.08;61.90;98410.42;2210267;81;21032;-60
2021/08/02 09:49:59;;;;;;;18.40;6.20;;;;;;;20.72;63.57;98403.35;2210598;81;20973;-62
2021/08/02 09:52:59;;;;;;;16.23;6.08;;;;;;;21.26;64.67;98381.36;2210606;81;20969;-59
2021/08/02 09:56:00;;;;;;;17.60;6.00;;;;;;;21.93;62.88;98384.05;2209964;80;21000;-62
2021/08/02 09:59:00;;;;;;;17.65;5.53;;;;;;;22.02;60.49;98390.16;2209141;81;21016;-59
2021/08/02 10:02:01;;;;;;;16.80;5.30;;;;;;;21.51;60.85;98410.63;2209619;81;20996;-59
2021/08/02 10:05:01;;;;;;;13.95;5.12;;;;;;;20.84;62.19;98410.48;2210577;81;20969;-60
2021/08/02 10:08:03;;;;;;;18.00;4.87;;;;;;;20.40;63.54;98420.48;2210379;81;20989;-59
2021/08/02 10:11:04;;;;;;;13.68;4.47;;;;;;;19.86;65.16;98413.44;2210180;81;21068;-59
2021/08/02 10:14:04;;;;;;;12.85;4.72;;;;;;;19.34;68.51;98433.02;2210561;81;20972;-58
2021/08/02 10:17:05;;;;;;;12.20;4.60;;;;;;;19.04;70.15;98426.70;2210293;81;21024;-60
2021/08/02 10:20:06;;;;;;;15.70;5.42;;;;;;;18.96;71.86;98421.34;2210287;81;20960;-58
2021/08/02 10:23:06;;;;;;;15.50;5.20;;;;;;;19.48;72.62;98420.45;2209395;81;21454;-58
2021/08/02 10:26:07;;;;;;;17.17;5.08;;;;;;;20.06;70.45;98412.13;2210244;81;21455;-59
2021/08/02 10:29:07;;;;;;;14.55;5.00;;;;;;;20.61;68.97;98421.80;2210212;81;20990;-59
2021/08/02 10:32:08;;;;;;;12.80;4.55;;;;;;;20.84;66.43;98415.82;2210677;81;21003;-59
2021/08/02 10:35:08;;;;;;;11.30;4.13;;;;;;;21.09;66.68;98413.43;2210641;81;21001;-59
2021/08/02 10:38:09;;;;;;;12.00;3.77;;;;;;;21.28;63.88;98424.70;2210533;81;20965;-61
2021/08/02 10:41:09;;;;;;;8.45;3.27;;;;;;;21.49;60.26;98423.28;2210444;81;21016;-59
2021/08/02 10:44:10;;;;;;;7.83;3.20;;;;;;;21.55;60.57;98419.46;2210518;81;21496;-59
2021/08/02 10:47:12;;;;;;;8.60;3.57;;;;;;;21.85;58.46;98418.31;2210124;81;21016;-59
2021/08/02 10:50:12;;;;;;;11.95;3.52;;;;;;;21.83;55.65;98411.48;2210474;81;21043;-59
2021/08/02 10:53:13;;;;;;;7.93;3.30;;;;;;;21.98;56.70;98402.53;2210489;81;20988;-59
2021/08/02 10:56:13;;;;;;;10.70;3.53;;;;;;;22.22;56.77;98407.36;2215763;80;21002;-59
2021/08/02 10:59:14;;;;;;;8.90;3.30;;;;;;;22.33;52.96;98414.69;2221013;80;21424;-61
2021/08/02 11:02:14;;;;;;;10.20;3.23;;;;;;;22.62;57.36;98400.56;2220708;80;21016;-61
2021/08/02 11:05:14;;;;;;;8.03;3.27;;;;;;;22.79;53.08;98405.25;2221003;80;21004;-59
2021/08/02 11:08:15;;;;;;;10.53;3.33;;;;;;;22.80;51.56;98394.38;2220774;80;21008;-59
2021/08/02 11:11:16;;;;;;;11.90;3.43;;;;;;;23.08;53.80;98396.41;2221277;80;21035;-64
2021/08/02 11:14:20;;;;;;;10.10;2.57;;;;;;;23.14;52.97;98409.09;2220628;80;21057;-66
2021/08/02 11:17:19;;;;;;;10.82;3.30;;;;;;;23.07;53.98;98398.75;2192633;80;21001;-58
2021/08/02 11:20:19;;;;;;;5.57;2.60;;;;;;;23.27;51.59;98397.71;2221241;80;20976;-59
2021/08/02 11:23:20;;;;;;;9.03;2.63;;;;;;;22.75;51.57;98395.92;2221434;80;20973;-59
2021/08/02 11:26:22;;;;;;;8.43;3.00;;;;;;;22.34;52.68;98406.48;2221173;80;21472;-59
2021/08/02 11:29:22;;;;;;;5.42;2.62;;;;;;;22.97;50.70;98388.34;2221168;80;21001;-60
2021/08/02 11:32:23;;;;;;;6.90;2.87;;;;;;;23.42;49.75;98388.34;2221235;80;21007;-59
2021/08/02 11:35:23;;;;;;;9.43;3.00;;;;;;;23.52;48.59;98400.92;2221313;80;21015;-60
2021/08/02 11:38:24;;;;;;;12.97;3.00;;;;;;;22.97;50.69;98402.20;2221200;80;21031;-67
2021/08/02 11:41:24;;;;;;;8.73;2.80;;;;;;;23.36;47.42;98407.84;2221316;80;20964;-64
2021/08/02 11:44:25;;;;;;;7.00;2.70;;;;;;;23.36;47.42;98407.84;2221218;80;21547;-59
2021/08/02 11:47:25;;;;;;;6.33;2.63;;;;;;;22.94;51.28;98416.80;2221168;80;21090;-59
2021/08/02 11:50:26;;;;;;;9.03;3.20;;;;;;;23.12;51.50;98411.62;2221181;80;21514;-60
2021/08/02 11:53:26;;;;;;;8.93;2.67;;;;;;;23.57;49.38;98424.44;2221163;80;21486;-60
2021/08/02 11:56:26;;;;;;;10.67;3.07;;;;;;;23.69;48.51;98418.09;2215872;80;20981;-64
2021/08/02 11:59:27;;;;;;;10.13;2.80;;;;;;;23.67;48.84;98422.30;2210950;81;20961;-60
2021/08/02 12:02:27;;;;;;;5.80;2.80;;;;;;;23.43;48.09;98427.97;2210447;81;21021;-60
2021/08/02 12:05:28;;;;;;;8.03;2.90;;;;;;;22.66;50.36;98424.06;2210665;81;20981;-59
2021/08/02 12:08:29;;;;;;;8.50;3.13;;;;;;;22.19;51.22;98425.59;2210577;81;20981;-61
2021/08/02 12:11:29;;;;;;;6.70;2.87;;;;;;;21.98;51.63;98446.59;2210324;81;21516;-59
2021/08/02 12:14:30;;;;;;;14.03;3.43;;;;;;;21.92;52.47;98440.63;2210690;81;21036;-71
2021/08/02 12:17:31;;;;;;;10.93;3.07;;;;;;;22.44;52.76;98432.45;2210799;81;20941;-62
2021/08/02 12:20:31;;;;;;;10.50;3.10;;;;;;;22.58;51.29;98438.01;2210639;81;20989;-59
2021/08/02 12:23:31;;;;;;;37.97;18.40;;;;;;;22.63;50.00;98435.64;2210495;81;21004;-61
2021/08/02 12:26:32;;;;;;;21.33;7.77;;;;;;;23.10;49.58;98422.96;2210624;81;20996;-62
2021/08/02 12:29:32;;;;;;;8.83;3.00;;;;;;;23.64;51.01;98435.24;2210700;81;20981;-60
2021/08/02 12:32:33;;;;;;;11.53;3.70;;;;;;;23.92;46.98;98430.54;2210646;81;20992;-59
2021/08/02 12:35:33;;;;;;;7.50;3.00;;;;;;;23.23;49.34;98420.53;2210692;81;20981;-64
2021/08/02 12:38:34;;;;;;;9.33;2.90;;;;;;;22.68;50.71;98429.22;2210748;81;21551;-69
2021/08/02 12:41:34;;;;;;;8.17;3.07;;;;;;;22.44;49.77;98417.75;2210536;81;21063;-63
2021/08/02 12:44:35;;;;;;;12.97;3.30;;;;;;;22.17;50.40;98407.56;2210786;81;21016;-64
2021/08/02 12:47:35;;;;;;;8.73;3.07;;;;;;;22.87;50.64;98428.39;2210710;81;21004;-62
2021/08/02 12:50:36;;;;;;;5.40;2.57;;;;;;;23.53;49.20;98417.31;2210497;81;21023;-59
2021/08/02 12:53:36;;;;;;;7.23;2.93;;;;;;;23.45;45.73;98425.44;2210679;81;20981;-59
2021/08/02 12:56:36;;;;;;;8.13;2.70;;;;;;;23.68;44.86;98419.95;2210530;81;21555;-60
2021/08/02 12:59:37;;;;;;;7.43;2.90;;;;;;;23.97;44.67;98418.77;2210493;81;21460;-59
2021/08/02 13:02:37;;;;;;;7.90;3.20;;;;;;;24.07;47.06;98415.78;2210488;81;20980;-64
2021/08/02 13:05:38;;;;;;;9.27;2.87;;;;;;;24.32;48.76;98406.83;2210448;81;20980;-60
2021/08/02 13:08:38;;;;;;;5.80;2.50;;;;;;;24.53;44.70;98414.85;2210203;81;21016;-60
2021/08/02 13:11:39;;;;;;;8.23;2.73;;;;;;;23.97;44.56;98412.06;2210775;81;20965;-59
2021/08/02 13:14:39;;;;;;;7.47;3.00;;;;;;;23.85;46.45;98408.52;2210697;81;20969;-60
2021/08/02 13:17:40;;;;;;;6.87;2.50;;;;;;;23.89;44.43;98395.59;2210673;81;20973;-59
2021/08/02 13:20:41;;;;;;;8.43;2.70;;;;;;;23.75;44.21;98392.41;2210279;81;21037;-63
2021/08/02 13:26:56;;;;;;;5.73;2.70;;;;;;;23.88;45.39;98395.29;2210275;81;21547;-70
2021/08/02 13:29:46;;;;;;;9.00;3.02;;;;;;;23.81;45.94;98399.72;2188831;81;21001;-59
2021/08/02 13:32:46;;;;;;;6.63;2.90;;;;;;;23.85;43.89;98403.16;2210493;81;20945;-60
2021/08/02 13:35:47;;;;;;;7.37;2.70;;;;;;;23.76;43.98;98405.64;2210478;81;21032;-59
2021/08/02 13:38:47;;;;;;;11.13;3.20;;;;;;;24.01;43.94;98398.63;2210428;81;21449;-59
2021/08/02 13:41:48;;;;;;;12.93;3.70;;;;;;;23.86;44.79;98394.14;2210424;81;21495;-63
2021/08/02 13:44:48;;;;;;;9.20;3.23;;;;;;;23.53;44.66;98399.91;2210376;81;21040;-67
2021/08/02 13:47:49;;;;;;;8.93;3.10;;;;;;;23.36;44.78;98389.11;2210763;81;21032;-59
2021/08/02 13:50:49;;;;;;;9.10;2.90;;;;;;;23.85;45.16;98405.83;2210580;81;20961;-62
2021/08/02 13:53:50;;;;;;;7.83;2.70;;;;;;;24.29;45.30;98388.47;2210549;81;20989;-61
2021/08/02 13:56:50;;;;;;;8.37;3.03;;;;;;;24.65;44.98;98399.13;2210475;80;21028;-59
2021/08/02 13:59:51;;;;;;;9.53;3.20;;;;;;;24.66;44.15;98409.32;2210562;81;20988;-60
2021/08/02 14:02:52;;;;;;;8.27;2.87;;;;;;;24.75;42.46;98408.14;2210378;81;21063;-64
2021/08/02 14:05:52;;;;;;;9.67;3.30;;;;;;;24.19;43.66;98396.81;2210571;81;21546;-60
2021/08/02 14:08:53;;;;;;;6.63;3.10;;;;;;;23.94;45.74;98396.38;2210801;81;21036;-61